Time;durP1;ratioP1;P1;durP2;ratioP2;P2;SDS_P1;SDS_P2;PMS_P1;PMS_P2;Temp;Humidity;BMP_temperature;BMP_pressure;BME280_temperature;BME280_humidity;BME280_pressure;Samples;Min_cycle;Max_cycle;Signal;HPM_P1;HPM_P2
2022/06/13 00:00:42;;;;;;;1.13;1.13;;;22.30;70.00;;;;;;5069743;28;44108;-70
2022/06/13 00:03:10;;;;;;;1.10;1.10;;;22.30;70.20;;;;;;5069195;28;44016;-69
2022/06/13 00:05:38;;;;;;;1.33;1.30;;;22.30;70.30;;;;;;5069297;28;43343;-70
2022/06/13 00:08:06;;;;;;;1.10;1.10;;;22.30;70.40;;;;;;5069278;28;43901;-69
2022/06/13 00:10:34;;;;;;;0.77;0.77;;;22.20;70.50;;;;;;5069752;28;43503;-70
2022/06/13 00:13:02;;;;;;;1.00;1.00;;;22.20;70.60;;;;;;5068734;28;44674;-70
2022/06/13 00:15:30;;;;;;;1.20;1.10;;;22.20;70.50;;;;;;5069298;28;44015;-71
2022/06/13 00:17:59;;;;;;;0.90;0.90;;;22.20;70.60;;;;;;5067753;28;43406;-71
2022/06/13 00:20:27;;;;;;;1.03;1.03;;;22.20;71.20;;;;;;5069635;28;43446;-70
2022/06/13 00:22:55;;;;;;;1.03;1.03;;;22.30;71.40;;;;;;5069265;28;44406;-70
2022/06/13 00:25:24;;;;;;;0.90;0.90;;;22.40;70.90;;;;;;5068836;28;43956;-70
2022/06/13 00:27:52;;;;;;;0.97;0.97;;;22.60;70.40;;;;;;5069047;28;43956;-70
2022/06/13 00:30:20;;;;;;;0.90;0.90;;;22.80;69.80;;;;;;5068163;28;43954;-71
2022/06/13 00:32:48;;;;;;;1.00;1.00;;;23.00;69.20;;;;;;5069022;28;44086;-70
2022/06/13 00:35:17;;;;;;;1.00;1.00;;;23.20;68.70;;;;;;5068832;28;43398;-70
2022/06/13 00:37:45;;;;;;;1.00;1.00;;;23.30;68.00;;;;;;5067742;28;43960;-71
2022/06/13 00:40:13;;;;;;;1.00;1.00;;;23.50;67.60;;;;;;5069265;28;43987;-71
2022/06/13 00:42:41;;;;;;;1.00;1.00;;;23.60;67.20;;;;;;5068774;28;43978;-71
2022/06/13 00:45:19;;;;;;;1.00;1.00;;;23.70;66.80;;;;;;5068732;28;43916;-70
2022/06/13 00:47:49;;;;;;;0.90;0.90;;;23.70;66.40;;;;;;5063193;28;43963;-71
2022/06/13 00:50:22;;;;;;;1.10;1.10;;;23.60;66.40;;;;;;5069454;28;44018;-71
2022/06/13 00:52:53;;;;;;;1.00;1.00;;;23.50;66.90;;;;;;5068961;28;44870;-70
2022/06/13 00:55:24;;;;;;;0.93;0.93;;;23.30;67.30;;;;;;5068534;28;43920;-70
2022/06/13 00:57:52;;;;;;;1.03;1.03;;;23.10;67.80;;;;;;5068675;28;43914;-71
2022/06/13 01:00:20;;;;;;;0.90;0.90;;;23.00;68.50;;;;;;5069564;28;44018;-69
2022/06/13 01:02:49;;;;;;;0.80;0.80;;;22.80;68.60;;;;;;5068416;28;44821;-69
2022/06/13 01:05:23;;;;;;;0.80;0.80;;;22.70;68.90;;;;;;5068639;28;43877;-69
2022/06/13 01:07:51;;;;;;;0.90;0.90;;;22.60;69.20;;;;;;5067190;28;43860;-70
2022/06/13 01:13:05;;;;;;;0.90;0.90;;;22.40;69.50;;;;;;5068106;28;43889;-69
2022/06/13 01:15:47;;;;;;;0.83;0.83;;;22.40;69.80;;;;;;5068070;28;43955;-69
2022/06/13 01:18:32;;;;;;;0.90;0.90;;;22.30;70.00;;;;;;5068101;28;43979;-70
2022/06/13 01:21:07;;;;;;;1.00;1.00;;;22.30;70.00;;;;;;5067190;28;43876;-69
2022/06/13 01:24:18;;;;;;;1.10;1.10;;;22.30;70.10;;;;;;5068248;28;44721;-69
2022/06/13 01:27:21;;;;;;;0.80;0.80;;;22.30;70.20;;;;;;5053263;28;43937;-69
2022/06/13 01:29:53;;;;;;;0.90;0.90;;;22.20;70.20;;;;;;5005782;28;44081;-69
2022/06/13 01:32:56;;;;;;;0.90;0.90;;;22.20;70.20;;;;;;5051056;28;43931;-70
2022/06/13 01:35:31;;;;;;;0.90;0.90;;;22.20;70.30;;;;;;5031949;28;43988;-70
2022/06/13 01:38:03;;;;;;;0.83;0.83;;;22.20;70.60;;;;;;5067778;28;43304;-69
2022/06/13 01:40:36;;;;;;;1.10;1.10;;;22.30;71.30;;;;;;5068225;28;43988;-70
2022/06/13 01:43:08;;;;;;;1.10;1.10;;;22.40;70.80;;;;;;5068238;28;43907;-69
2022/06/13 01:45:39;;;;;;;0.90;0.90;;;22.60;70.30;;;;;;5067852;28;43898;-69
2022/06/13 01:48:11;;;;;;;0.80;0.80;;;22.80;69.70;;;;;;5065820;28;46001;-69
2022/06/13 01:50:41;;;;;;;0.97;0.97;;;23.00;69.00;;;;;;5067887;28;43952;-69
2022/06/13 01:53:14;;;;;;;1.00;1.00;;;23.10;68.50;;;;;;5068313;28;43406;-69
2022/06/13 01:55:45;;;;;;;0.90;0.90;;;23.30;67.80;;;;;;5065910;28;44891;-69
2022/06/13 01:58:15;;;;;;;0.80;0.80;;;23.50;67.40;;;;;;5067422;28;43560;-69
2022/06/13 02:00:45;;;;;;;0.80;0.80;;;23.60;66.80;;;;;;5067646;28;43434;-68
2022/06/13 02:03:17;;;;;;;0.70;0.70;;;23.60;66.50;;;;;;5067738;28;43951;-70
2022/06/13 02:05:46;;;;;;;0.80;0.80;;;23.60;66.70;;;;;;5061100;28;43957;-70
2022/06/13 02:08:15;;;;;;;0.87;0.87;;;23.40;67.00;;;;;;5061073;28;44035;-70
2022/06/13 02:10:51;;;;;;;1.10;1.10;;;23.20;67.40;;;;;;5067783;28;43897;-69
2022/06/13 02:13:21;;;;;;;0.80;0.80;;;23.10;68.00;;;;;;5067980;28;43383;-69
2022/06/13 02:15:56;;;;;;;1.00;1.00;;;22.90;68.40;;;;;;5067475;28;43970;-69
2022/06/13 02:18:27;;;;;;;0.90;0.90;;;22.70;68.60;;;;;;5067156;28;44011;-69
2022/06/13 02:20:56;;;;;;;0.87;0.87;;;22.60;68.80;;;;;;5067431;28;43770;-69
2022/06/13 02:23:26;;;;;;;0.90;0.90;;;22.50;69.10;;;;;;5067114;28;44074;-69
2022/06/13 02:25:55;;;;;;;0.93;0.93;;;22.50;69.30;;;;;;5067280;28;44023;-69
2022/06/13 02:28:26;;;;;;;0.90;0.90;;;22.40;69.50;;;;;;5066985;28;43972;-69
2022/06/13 02:30:58;;;;;;;1.00;1.00;;;22.40;69.70;;;;;;5067262;28;43892;-69
2022/06/13 02:33:29;;;;;;;0.87;0.87;;;22.30;69.80;;;;;;5067461;28;43987;-69
2022/06/13 02:36:00;;;;;;;1.00;1.00;;;22.30;69.90;;;;;;5065575;28;45984;-68
2022/06/13 02:38:30;;;;;;;0.90;0.90;;;22.30;70.00;;;;;;5066808;28;44022;-69
2022/06/13 02:40:59;;;;;;;0.90;0.90;;;22.20;70.00;;;;;;5067164;28;43848;-69
2022/06/13 02:43:29;;;;;;;1.07;1.07;;;22.20;70.00;;;;;;5067382;28;44009;-69
2022/06/13 02:45:59;;;;;;;0.83;0.83;;;22.20;70.10;;;;;;5066635;28;43690;-69
2022/06/13 02:48:31;;;;;;;0.90;0.90;;;22.20;70.10;;;;;;5065032;28;44007;-68
2022/06/13 02:51:02;;;;;;;1.00;1.00;;;22.20;70.20;;;;;;5067140;28;43880;-69
2022/06/13 02:53:33;;;;;;;1.00;1.00;;;22.20;71.00;;;;;;5065834;28;43836;-69
2022/06/13 02:56:07;;;;;;;0.80;0.80;;;22.30;71.00;;;;;;5066705;28;43910;-69
2022/06/13 02:58:37;;;;;;;0.80;0.80;;;22.50;70.60;;;;;;5066568;28;44090;-69
2022/06/13 03:01:08;;;;;;;1.10;1.10;;;22.70;69.90;;;;;;5066888;28;44110;-69
2022/06/13 03:03:45;;;;;;;0.90;0.90;;;22.90;69.30;;;;;;5067212;28;43408;-69
2022/06/13 03:06:18;;;;;;;0.90;0.90;;;23.10;68.70;;;;;;5066511;28;44058;-70
2022/06/13 03:08:59;;;;;;;0.87;0.87;;;23.30;68.10;;;;;;5066554;28;43977;-71
2022/06/13 03:11:40;;;;;;;1.00;1.00;;;23.40;67.50;;;;;;5066730;28;43358;-69
2022/06/13 03:14:13;;;;;;;1.00;1.00;;;23.50;67.00;;;;;;5061610;28;43949;-69
2022/06/13 03:16:44;;;;;;;0.90;0.90;;;23.60;66.50;;;;;;5066304;28;44019;-69
2022/06/13 03:19:15;;;;;;;0.90;0.90;;;23.70;66.20;;;;;;5066395;28;43906;-69
2022/06/13 03:21:45;;;;;;;0.93;0.93;;;23.70;66.30;;;;;;5066640;28;44046;-69
2022/06/13 03:24:17;;;;;;;0.93;0.93;;;23.50;66.60;;;;;;5059705;28;43886;-69
2022/06/13 03:26:49;;;;;;;1.00;1.00;;;23.30;67.10;;;;;;5066555;28;44957;-69
2022/06/13 03:29:18;;;;;;;0.90;0.90;;;23.10;67.40;;;;;;5066523;28;44151;-69
2022/06/13 03:31:48;;;;;;;0.80;0.80;;;23.00;68.20;;;;;;5066522;28;44031;-70
2022/06/13 03:34:18;;;;;;;1.00;1.00;;;22.80;68.20;;;;;;5067790;28;44022;-69
2022/06/13 03:36:48;;;;;;;0.90;0.90;;;22.70;68.50;;;;;;5070019;28;43959;-69
2022/06/13 03:39:18;;;;;;;0.90;0.90;;;22.60;68.80;;;;;;5069604;28;43940;-69
2022/06/13 03:41:47;;;;;;;1.00;1.00;;;22.50;69.00;;;;;;5070118;28;44007;-68
2022/06/13 03:44:18;;;;;;;0.77;0.77;;;22.40;69.20;;;;;;5070471;28;43395;-69
2022/06/13 03:46:48;;;;;;;0.80;0.80;;;22.40;69.40;;;;;;5070078;28;45053;-68
2022/06/13 03:49:19;;;;;;;1.13;1.10;;;22.30;69.50;;;;;;5062753;28;44014;-69
2022/06/13 03:51:49;;;;;;;1.07;1.07;;;22.30;69.60;;;;;;5070081;28;44000;-69
2022/06/13 03:54:19;;;;;;;1.20;1.20;;;22.30;69.70;;;;;;5064342;28;44022;-70
2022/06/13 03:56:49;;;;;;;1.23;1.20;;;22.20;69.70;;;;;;5069905;28;43931;-69
2022/06/13 03:59:19;;;;;;;2.53;1.53;;;22.20;69.80;;;;;;5069755;28;43418;-68
2022/06/13 04:01:48;;;;;;;3.33;1.73;;;22.20;69.90;;;;;;5069976;28;43910;-69
2022/06/13 04:04:19;;;;;;;3.90;2.53;;;22.20;69.90;;;;;;5070367;28;44066;-70
2022/06/13 04:06:50;;;;;;;8.37;3.50;;;22.20;70.50;;;;;;5068159;28;45269;-69
2022/06/13 04:09:20;;;;;;;6.23;2.83;;;22.20;70.80;;;;;;5069419;28;44122;-68
2022/06/13 04:11:59;;;;;;;7.93;3.70;;;22.40;70.50;;;;;;5069756;28;43838;-69
2022/06/13 04:14:41;;;;;;;7.87;2.77;;;22.60;70.00;;;;;;5068484;28;44136;-71
2022/06/13 04:17:12;;;;;;;8.37;3.60;;;22.80;69.20;;;;;;5069391;28;43678;-68
2022/06/13 04:19:46;;;;;;;8.73;3.97;;;23.00;68.60;;;;;;5068851;28;43990;-68
2022/06/13 04:22:19;;;;;;;9.67;4.20;;;23.20;68.00;;;;;;5063739;28;43869;-68
2022/06/13 04:24:54;;;;;;;9.60;4.10;;;23.30;67.40;;;;;;5070043;28;43941;-69
2022/06/13 04:27:23;;;;;;;8.90;4.00;;;23.50;67.00;;;;;;5069225;28;43927;-69
2022/06/13 04:29:56;;;;;;;8.37;4.43;;;23.60;66.40;;;;;;5069162;28;43942;-69
2022/06/13 04:32:26;;;;;;;9.60;4.00;;;23.60;66.20;;;;;;5069233;28;43963;-70
2022/06/13 04:34:55;;;;;;;9.17;4.70;;;23.50;66.40;;;;;;5069577;28;43900;-69
2022/06/13 04:37:23;;;;;;;7.43;4.03;;;23.40;66.70;;;;;;5069092;28;43964;-69
2022/06/13 04:39:53;;;;;;;9.27;4.13;;;23.20;66.60;;;;;;5069082;28;44184;-69
2022/06/13 04:42:21;;;;;;;9.37;4.60;;;23.00;67.50;;;;;;5067898;28;44096;-69
2022/06/13 04:44:50;;;;;;;10.20;4.50;;;22.80;67.80;;;;;;5069076;28;43924;-69
2022/06/13 04:47:18;;;;;;;6.57;3.90;;;22.70;68.20;;;;;;5068846;28;44051;-69
2022/06/13 04:49:48;;;;;;;11.53;4.70;;;22.60;68.50;;;;;;5068915;28;43953;-69
2022/06/13 04:52:18;;;;;;;8.93;4.77;;;22.50;68.80;;;;;;5068880;28;44010;-69
2022/06/13 04:54:48;;;;;;;9.20;4.40;;;22.40;69.00;;;;;;5069539;28;43483;-68
2022/06/13 04:57:17;;;;;;;8.87;4.60;;;22.30;69.20;;;;;;5068732;28;43967;-69
2022/06/13 04:59:45;;;;;;;7.43;4.57;;;22.30;69.30;;;;;;5068699;28;43995;-69
2022/06/13 05:02:15;;;;;;;10.43;4.50;;;22.30;69.50;;;;;;5068843;28;43957;-69
2022/06/13 05:04:43;;;;;;;9.20;4.67;;;22.20;69.60;;;;;;5069106;28;43934;-70
2022/06/13 05:07:12;;;;;;;8.50;4.50;;;22.20;69.70;;;;;;5068477;28;44946;-69
2022/06/13 05:09:42;;;;;;;8.30;4.50;;;22.20;69.80;;;;;;5068358;28;44039;-69
2022/06/13 05:12:12;;;;;;;7.90;4.47;;;22.20;69.90;;;;;;5068531;28;43860;-70
2022/06/13 05:14:42;;;;;;;6.60;4.03;;;22.20;70.00;;;;;;5068941;28;43498;-70
2022/06/13 05:17:21;;;;;;;9.40;4.20;;;22.20;70.00;;;;;;5068401;28;43893;-70
2022/06/13 05:19:54;;;;;;;8.80;4.50;;;22.20;70.50;;;;;;5062843;28;43968;-70
2022/06/13 05:22:31;;;;;;;6.20;3.83;;;22.20;70.90;;;;;;5068449;28;44045;-69
2022/06/13 05:25:08;;;;;;;7.20;4.17;;;22.40;70.70;;;;;;5068788;28;43945;-68
2022/06/13 05:27:36;;;;;;;5.03;3.70;;;22.60;70.00;;;;;;5068319;28;44120;-69
2022/06/13 05:30:05;;;;;;;5.80;4.30;;;22.80;69.40;;;;;;5067796;28;43384;-69
2022/06/13 05:32:33;;;;;;;6.57;4.03;;;23.00;68.80;;;;;;5068247;28;43944;-69
2022/06/13 05:35:03;;;;;;;7.20;3.90;;;23.20;68.30;;;;;;5068727;28;43879;-69
2022/06/13 05:37:31;;;;;;;6.27;3.90;;;23.30;67.70;;;;;;5068152;28;43922;-69
2022/06/13 05:40:00;;;;;;;6.20;3.87;;;23.40;67.20;;;;;;5068051;28;44314;-69
2022/06/13 05:42:30;;;;;;;5.40;3.87;;;23.50;66.80;;;;;;5068187;28;44080;-69
2022/06/13 05:44:58;;;;;;;4.83;3.77;;;23.60;66.50;;;;;;5068510;28;43964;-69
2022/06/13 05:47:26;;;;;;;6.37;4.00;;;23.60;66.20;;;;;;5067557;28;43968;-69
2022/06/13 05:49:54;;;;;;;5.63;4.03;;;23.50;66.70;;;;;;5067864;28;43860;-68
2022/06/13 05:52:22;;;;;;;3.80;3.33;;;23.30;66.90;;;;;;5068104;28;44413;-69
2022/06/13 05:54:50;;;;;;;4.50;3.87;;;23.20;67.50;;;;;;5068514;28;44016;-69
2022/06/13 05:57:18;;;;;;;5.67;3.80;;;23.00;68.70;;;;;;5065444;28;44158;-69
2022/06/13 05:59:51;;;;;;;7.43;3.93;;;22.80;68.10;;;;;;5067799;28;43967;-68
2022/06/13 06:02:19;;;;;;;3.53;2.90;;;22.70;68.50;;;;;;5068046;28;43928;-69
2022/06/13 06:04:47;;;;;;;5.87;3.60;;;22.60;68.70;;;;;;5068651;28;43938;-69
2022/06/13 06:07:15;;;;;;;5.23;3.60;;;22.50;69.00;;;;;;5067819;28;44106;-68
2022/06/13 06:09:43;;;;;;;3.87;3.30;;;22.40;69.20;;;;;;5065964;28;44922;-69
2022/06/13 06:12:12;;;;;;;4.00;3.13;;;22.40;69.50;;;;;;5067645;28;43362;-70
2022/06/13 06:14:40;;;;;;;3.60;3.30;;;22.30;69.60;;;;;;5067985;28;44277;-69
2022/06/13 06:17:09;;;;;;;3.57;3.17;;;22.30;69.70;;;;;;5067421;28;43945;-69
2022/06/13 06:19:37;;;;;;;3.60;3.30;;;22.20;69.70;;;;;;5067265;28;43836;-68
2022/06/13 06:22:05;;;;;;;3.60;3.30;;;22.20;69.90;;;;;;5067759;28;44055;-69
2022/06/13 06:24:33;;;;;;;3.60;3.33;;;22.20;70.00;;;;;;5067707;28;43957;-70
2022/06/13 06:27:02;;;;;;;3.70;3.40;;;22.20;70.00;;;;;;5067416;28;43694;-69
2022/06/13 06:29:30;;;;;;;3.57;3.27;;;22.20;70.70;;;;;;5065699;28;44710;-69
2022/06/13 06:31:58;;;;;;;3.80;3.43;;;22.20;70.10;;;;;;5067435;28;43819;-69
2022/06/13 06:34:28;;;;;;;3.67;3.20;;;22.10;71.10;;;;;;5066238;28;43945;-68
2022/06/13 06:36:56;;;;;;;3.57;3.27;;;22.20;71.00;;;;;;5067337;28;44724;-68
2022/06/13 06:39:23;;;;;;;3.40;3.10;;;22.30;70.60;;;;;;5066862;28;44080;-69
2022/06/13 06:41:52;;;;;;;3.77;2.87;;;22.50;70.30;;;;;;5067466;28;43877;-69
2022/06/13 06:44:25;;;;;;;3.23;2.93;;;22.70;69.70;;;;;;5067658;28;44018;-70
2022/06/13 06:46:53;;;;;;;3.23;2.93;;;22.90;69.00;;;;;;5066954;28;43940;-69
2022/06/13 06:49:21;;;;;;;3.20;2.90;;;23.10;68.40;;;;;;5066920;28;44817;-68
2022/06/13 06:51:51;;;;;;;3.10;2.90;;;23.20;67.90;;;;;;5065432;28;43525;-69
2022/06/13 06:59:59;;;;;;;3.10;2.90;;;23.60;66.70;;;;;;5035344;28;43352;-69
2022/06/13 07:02:28;;;;;;;2.90;2.70;;;23.50;66.90;;;;;;5060519;28;44104;-69
2022/06/13 07:04:57;;;;;;;3.53;2.70;;;23.30;67.20;;;;;;5060802;28;43885;-69
2022/06/13 07:07:26;;;;;;;2.67;2.50;;;23.10;67.80;;;;;;5060247;28;44030;-69
2022/06/13 07:09:54;;;;;;;2.73;2.57;;;22.90;68.00;;;;;;5060483;28;44083;-69
2022/06/13 07:12:22;;;;;;;3.03;2.83;;;22.80;68.30;;;;;;5066422;28;43916;-70
2022/06/13 07:14:50;;;;;;;2.50;2.40;;;22.70;68.60;;;;;;5067400;28;44313;-69
2022/06/13 07:17:20;;;;;;;2.90;2.70;;;22.50;68.80;;;;;;5066853;28;43992;-68
2022/06/13 07:19:48;;;;;;;3.13;2.83;;;22.50;69.20;;;;;;5065133;28;45185;-69
2022/06/13 07:22:17;;;;;;;2.67;2.50;;;22.40;69.40;;;;;;5066629;28;44091;-69
2022/06/13 07:24:46;;;;;;;2.67;2.57;;;22.30;69.50;;;;;;5067032;28;43719;-70
2022/06/13 07:27:15;;;;;;;2.70;2.57;;;22.30;69.70;;;;;;5066280;28;44709;-69
2022/06/13 07:29:43;;;;;;;2.20;2.10;;;22.20;69.80;;;;;;5066413;28;44022;-69
2022/06/13 07:32:13;;;;;;;2.97;2.77;;;22.20;70.00;;;;;;5066492;28;43931;-68
2022/06/13 07:34:41;;;;;;;2.50;2.40;;;22.20;70.00;;;;;;5066869;28;43916;-70
2022/06/13 07:37:10;;;;;;;2.40;2.30;;;22.20;70.10;;;;;;5066490;28;43742;-70
2022/06/13 07:39:38;;;;;;;2.70;2.60;;;22.20;70.20;;;;;;5066497;28;43347;-70
2022/06/13 07:42:11;;;;;;;2.50;2.30;;;22.10;70.10;;;;;;5066623;28;43443;-69
2022/06/13 07:44:40;;;;;;;2.70;2.50;;;22.10;70.20;;;;;;5066576;28;44004;-69
2022/06/13 07:47:08;;;;;;;2.37;2.23;;;22.10;70.20;;;;;;5066200;28;43873;-70
2022/06/13 07:49:36;;;;;;;2.63;2.43;;;22.10;71.00;;;;;;5065812;28;44002;-69
2022/06/13 07:52:04;;;;;;;2.33;2.23;;;22.20;70.90;;;;;;5066251;28;43969;-69
2022/06/13 07:54:33;;;;;;;2.80;2.60;;;22.40;70.40;;;;;;5066586;28;43565;-69
2022/06/13 07:57:00;;;;;;;2.67;2.50;;;22.60;69.90;;;;;;5066119;28;43978;-70
2022/06/13 07:59:36;;;;;;;2.40;2.30;;;22.80;69.40;;;;;;5066014;28;43824;-69
2022/06/13 08:02:04;;;;;;;2.93;2.50;;;22.90;68.80;;;;;;5066074;28;44030;-70
2022/06/13 08:04:32;;;;;;;2.33;2.23;;;23.10;68.30;;;;;;5066675;28;44075;-70
2022/06/13 08:07:20;;;;;;;2.50;2.40;;;23.20;67.70;;;;;;5066241;28;43868;-69
2022/06/13 08:09:48;;;;;;;2.40;2.30;;;23.40;67.40;;;;;;5066030;28;43910;-69
2022/06/13 08:12:17;;;;;;;2.10;2.00;;;23.50;67.00;;;;;;5066055;28;43955;-70
2022/06/13 08:14:47;;;;;;;2.40;2.30;;;23.50;66.70;;;;;;5066490;28;43887;-70
2022/06/13 08:17:16;;;;;;;2.23;2.13;;;23.40;67.00;;;;;;5059475;28;45133;-69
2022/06/13 08:19:44;;;;;;;2.30;2.20;;;23.20;67.40;;;;;;5059316;28;44053;-68
2022/06/13 08:22:11;;;;;;;2.30;2.20;;;23.00;67.90;;;;;;5062912;28;44010;-69
2022/06/13 08:24:40;;;;;;;2.23;2.13;;;22.90;68.10;;;;;;5063390;28;43951;-68
2022/06/13 08:27:08;;;;;;;2.10;2.00;;;22.70;68.30;;;;;;5054398;28;46103;-69
2022/06/13 08:29:36;;;;;;;2.47;2.37;;;22.60;68.70;;;;;;5062903;28;43971;-70
2022/06/13 08:32:06;;;;;;;2.50;2.30;;;22.50;69.00;;;;;;5062759;28;43813;-69
2022/06/13 08:34:34;;;;;;;2.23;2.13;;;22.40;69.20;;;;;;5063454;28;43881;-69
2022/06/13 08:37:02;;;;;;;2.10;2.07;;;22.30;69.40;;;;;;5068973;28;44804;-70
2022/06/13 08:39:30;;;;;;;2.30;2.20;;;22.30;69.60;;;;;;5069094;28;43952;-68
2022/06/13 08:42:01;;;;;;;1.93;1.83;;;22.30;69.80;;;;;;5069072;28;43995;-69
2022/06/13 08:44:42;;;;;;;2.40;2.30;;;22.20;69.90;;;;;;5069576;28;43361;-68
2022/06/13 08:47:17;;;;;;;2.30;2.20;;;22.20;70.00;;;;;;5069003;28;43971;-69
2022/06/13 08:49:47;;;;;;;2.00;1.90;;;22.20;70.10;;;;;;5069014;28;44103;-69
2022/06/13 08:52:24;;;;;;;2.10;2.10;;;22.20;70.20;;;;;;5068916;28;43935;-68
2022/06/13 08:55:07;;;;;;;1.90;1.80;;;22.10;70.10;;;;;;5067790;28;43982;-69
2022/06/13 08:57:35;;;;;;;2.00;2.00;;;22.10;70.20;;;;;;5068659;28;43883;-70
2022/06/13 09:00:06;;;;;;;1.93;1.87;;;22.10;70.20;;;;;;5068888;28;44022;-70
2022/06/13 09:02:40;;;;;;;1.93;1.93;;;22.10;71.00;;;;;;5068806;28;43896;-69
2022/06/13 09:05:09;;;;;;;2.30;2.20;;;22.20;70.80;;;;;;5069321;28;43959;-70
2022/06/13 09:07:39;;;;;;;1.63;1.63;;;22.40;70.40;;;;;;5068501;28;43606;-69
2022/06/13 09:10:09;;;;;;;1.90;1.80;;;22.50;69.90;;;;;;5067123;28;44764;-68
2022/06/13 09:12:55;;;;;;;1.93;1.93;;;22.70;69.40;;;;;;5066852;28;43465;-69
2022/06/13 09:15:26;;;;;;;1.87;1.80;;;22.90;69.00;;;;;;5069229;28;43869;-69
2022/06/13 09:17:57;;;;;;;1.93;1.83;;;23.00;68.30;;;;;;5068850;28;43946;-69
2022/06/13 09:20:29;;;;;;;1.77;1.77;;;23.20;67.90;;;;;;5068298;28;43976;-69
2022/06/13 09:22:59;;;;;;;1.80;1.80;;;23.30;67.50;;;;;;5068706;28;43856;-69
2022/06/13 09:25:38;;;;;;;2.03;1.93;;;23.40;67.10;;;;;;5067456;28;43885;-69
2022/06/13 09:28:07;;;;;;;1.80;1.70;;;23.50;66.80;;;;;;5068383;28;44039;-69
2022/06/13 09:30:36;;;;;;;2.00;1.97;;;23.40;67.00;;;;;;5068060;28;44145;-68
2022/06/13 09:33:08;;;;;;;1.90;1.80;;;23.20;67.50;;;;;;5068377;28;44008;-69
2022/06/13 09:35:39;;;;;;;2.07;2.03;;;23.10;68.00;;;;;;5068789;28;43899;-70
2022/06/13 09:38:09;;;;;;;1.63;1.63;;;22.90;68.10;;;;;;5068251;28;43982;-69
2022/06/13 09:40:41;;;;;;;1.97;1.87;;;22.70;68.30;;;;;;5067967;28;43809;-70
2022/06/13 09:43:16;;;;;;;1.57;1.57;;;22.60;68.60;;;;;;5068352;28;43962;-69
2022/06/13 09:45:48;;;;;;;1.60;1.60;;;22.50;69.00;;;;;;5068598;28;43416;-69
2022/06/13 09:48:26;;;;;;;1.60;1.60;;;22.40;69.10;;;;;;5068129;28;44808;-69
2022/06/13 09:51:09;;;;;;;1.90;1.90;;;22.40;69.50;;;;;;5068001;28;44003;-69
2022/06/13 09:53:42;;;;;;;1.73;1.73;;;22.30;69.60;;;;;;5068084;28;43927;-70
2022/06/13 09:56:12;;;;;;;1.93;1.93;;;22.30;69.70;;;;;;5068493;28;43353;-69
2022/06/13 09:58:50;;;;;;;1.70;1.60;;;22.20;69.80;;;;;;5067645;28;44034;-70
2022/06/13 10:01:21;;;;;;;1.53;1.53;;;22.20;69.90;;;;;;5068016;28;43841;-69
2022/06/13 10:03:54;;;;;;;1.50;1.50;;;22.20;70.00;;;;;;5068136;28;43978;-69
2022/06/13 10:06:25;;;;;;;1.70;1.70;;;22.20;70.10;;;;;;5067113;28;43879;-70
2022/06/13 10:09:06;;;;;;;1.60;1.60;;;22.20;70.10;;;;;;5067713;28;43923;-69
2022/06/13 10:11:39;;;;;;;1.80;1.80;;;22.20;70.10;;;;;;5067518;28;44125;-69
2022/06/13 10:14:27;;;;;;;1.60;1.60;;;22.10;70.00;;;;;;5067566;28;43904;-70
2022/06/13 10:17:02;;;;;;;1.47;1.47;;;22.10;70.80;;;;;;5055452;28;44001;-69
2022/06/13 10:19:34;;;;;;;1.80;1.70;;;22.10;70.90;;;;;;5067631;28;43980;-70
2022/06/13 10:22:06;;;;;;;1.90;1.80;;;22.20;70.80;;;;;;5067490;28;43813;-69
2022/06/13 10:24:40;;;;;;;1.70;1.70;;;22.40;70.40;;;;;;5067618;28;43759;-69
2022/06/13 10:27:16;;;;;;;1.50;1.50;;;22.50;69.90;;;;;;5068145;28;43990;-68
2022/06/13 10:30:11;;;;;;;1.50;1.50;;;22.70;69.50;;;;;;5061975;28;43936;-69
2022/06/13 10:32:54;;;;;;;1.57;1.57;;;22.90;68.90;;;;;;5065562;28;43955;-69
2022/06/13 10:35:30;;;;;;;1.47;1.47;;;23.10;69.20;;;;;;5067501;28;43979;-68
2022/06/13 10:38:06;;;;;;;1.50;1.50;;;23.20;67.90;;;;;;5067851;28;44077;-70
2022/06/13 10:40:34;;;;;;;1.77;1.77;;;23.30;67.50;;;;;;5067164;28;43924;-69
2022/06/13 10:43:02;;;;;;;1.60;1.60;;;23.40;67.10;;;;;;5066688;28;44287;-68
2022/06/13 10:45:30;;;;;;;1.60;1.60;;;23.30;67.20;;;;;;5065829;28;44121;-69
2022/06/13 10:48:00;;;;;;;1.60;1.60;;;23.20;67.60;;;;;;5067522;28;44021;-69
2022/06/13 10:50:32;;;;;;;1.60;1.60;;;23.00;67.50;;;;;;5067118;28;45108;-69
2022/06/13 10:53:03;;;;;;;1.40;1.40;;;22.80;68.00;;;;;;5067174;28;43936;-68
2022/06/13 10:55:34;;;;;;;1.33;1.33;;;22.70;68.40;;;;;;5067224;28;43492;-69
2022/06/13 10:58:04;;;;;;;1.80;1.70;;;22.60;68.60;;;;;;5067644;28;43931;-70
2022/06/13 11:00:32;;;;;;;1.50;1.50;;;22.50;68.90;;;;;;5066988;28;43865;-69
2022/06/13 11:03:10;;;;;;;1.53;1.53;;;22.40;69.20;;;;;;5067117;28;43402;-69
2022/06/13 11:05:50;;;;;;;1.60;1.60;;;22.30;69.30;;;;;;5065635;28;43960;-69
2022/06/13 11:08:18;;;;;;;1.77;1.77;;;22.30;69.50;;;;;;5066058;28;43498;-69
2022/06/13 11:10:56;;;;;;;1.50;1.50;;;22.20;69.30;;;;;;5067055;28;43727;-69
2022/06/13 11:13:26;;;;;;;1.40;1.40;;;22.20;69.50;;;;;;5066746;28;43951;-69
2022/06/13 11:24:23;;;;;;;1.40;1.40;;;22.10;69.80;;;;;;5066794;28;44090;-69
2022/06/13 11:29:38;;;;;;;1.40;1.40;;;22.10;70.30;;;;;;5067030;28;44018;-69
2022/06/13 11:32:11;;;;;;;1.40;1.40;;;22.10;70.80;;;;;;5060296;28;43924;-68
2022/06/13 11:34:41;;;;;;;1.53;1.53;;;22.20;70.50;;;;;;5066686;28;43400;-69
2022/06/13 11:37:18;;;;;;;1.50;1.43;;;22.40;70.10;;;;;;5065122;28;44093;-68
2022/06/13 11:39:47;;;;;;;1.40;1.40;;;22.60;69.60;;;;;;5066848;28;43454;-69
2022/06/13 11:42:18;;;;;;;1.30;1.30;;;22.70;69.10;;;;;;5066076;28;43932;-69
2022/06/13 11:44:49;;;;;;;1.47;1.47;;;22.90;68.70;;;;;;5066398;28;43471;-69
2022/06/13 11:47:17;;;;;;;1.60;1.60;;;23.10;68.30;;;;;;5066720;28;43959;-70
2022/06/13 11:49:46;;;;;;;1.30;1.30;;;23.20;67.90;;;;;;5066893;28;44135;-70
2022/06/13 11:55:24;;;;;;;1.40;1.40;;;23.40;67.00;;;;;;5067380;28;43927;-68
2022/06/13 11:57:56;;;;;;;1.50;1.50;;;23.40;66.80;;;;;;5070124;28;44143;-69
2022/06/13 12:00:36;;;;;;;1.40;1.40;;;23.30;67.10;;;;;;5070196;28;43986;-70
2022/06/13 12:03:15;;;;;;;1.27;1.27;;;23.10;67.60;;;;;;5069663;28;43938;-69
2022/06/13 12:05:44;;;;;;;1.30;1.30;;;22.90;67.80;;;;;;5069634;28;43485;-69
2022/06/13 12:08:22;;;;;;;1.50;1.50;;;22.80;68.00;;;;;;5069719;28;44066;-68
2022/06/13 12:10:58;;;;;;;1.40;1.40;;;22.70;68.50;;;;;;5070339;28;43435;-69
2022/06/13 12:13:27;;;;;;;1.40;1.40;;;22.50;68.70;;;;;;5069359;28;44004;-69
2022/06/13 12:16:10;;;;;;;1.20;1.20;;;22.50;69.00;;;;;;5069545;28;43998;-68
2022/06/13 12:18:43;;;;;;;1.40;1.40;;;22.40;69.30;;;;;;5069652;28;43966;-70
2022/06/13 12:21:16;;;;;;;1.37;1.37;;;22.30;69.50;;;;;;5069850;28;43999;-69
2022/06/13 12:23:48;;;;;;;1.40;1.40;;;22.30;69.60;;;;;;5069548;28;43851;-70
2022/06/13 12:26:19;;;;;;;1.73;1.33;;;22.20;69.70;;;;;;5068962;28;43991;-70
2022/06/13 12:28:50;;;;;;;1.83;1.40;;;22.20;69.70;;;;;;5063226;28;43921;-69
2022/06/13 12:31:21;;;;;;;3.43;2.00;;;22.20;69.60;;;;;;5063765;28;44043;-68
2022/06/13 12:33:54;;;;;;;1.80;1.70;;;22.10;70.30;;;;;;5069375;28;43969;-69
2022/06/13 12:36:33;;;;;;;2.13;2.03;;;22.20;70.50;;;;;;5069153;28;43900;-69
2022/06/13 12:39:36;;;;;;;4.57;2.47;;;22.30;70.80;;;;;;5069390;28;43510;-70
2022/06/13 12:42:11;;;;;;;6.07;2.50;;;22.50;69.60;;;;;;5069291;28;43948;-69
2022/06/13 12:44:47;;;;;;;3.40;2.40;;;22.70;69.10;;;;;;5069004;28;44919;-69
2022/06/13 12:47:52;;;;;;;9.27;3.30;;;22.90;68.60;;;;;;5068690;28;44010;-69
2022/06/13 12:50:49;;;;;;;4.03;2.60;;;23.10;68.00;;;;;;5068816;28;43887;-69
2022/06/13 12:53:28;;;;;;;6.17;3.30;;;23.30;67.50;;;;;;5064475;28;43904;-69
2022/06/13 12:56:02;;;;;;;6.10;3.00;;;23.40;67.00;;;;;;5062478;28;43889;-71
2022/06/13 12:58:46;;;;;;;5.60;3.30;;;23.50;66.70;;;;;;5061694;28;44644;-69
2022/06/13 13:01:15;;;;;;;5.73;3.47;;;23.60;66.40;;;;;;5068894;28;43940;-69
2022/06/13 13:04:09;;;;;;;11.17;4.00;;;23.70;66.10;;;;;;5068988;28;43952;-69
2022/06/13 13:06:43;;;;;;;4.20;3.30;;;23.60;66.10;;;;;;5062317;28;44054;-70
2022/06/13 13:09:20;;;;;;;4.63;3.70;;;23.50;66.60;;;;;;5068650;28;43821;-69
2022/06/13 13:11:59;;;;;;;6.93;3.57;;;23.30;67.20;;;;;;5068850;28;44086;-69
2022/06/13 13:14:37;;;;;;;7.83;4.50;;;23.10;67.40;;;;;;5069222;28;43481;-69
2022/06/13 13:17:12;;;;;;;5.67;4.23;;;22.90;67.70;;;;;;5068672;28;43909;-69
2022/06/13 13:19:48;;;;;;;8.13;4.37;;;22.70;68.20;;;;;;5068590;28;43896;-69
2022/06/13 13:22:18;;;;;;;5.73;4.30;;;22.60;68.60;;;;;;5062607;28;43974;-69
2022/06/13 13:24:53;;;;;;;7.97;4.70;;;22.60;69.00;;;;;;5068958;28;43478;-68
2022/06/13 13:27:24;;;;;;;10.03;5.00;;;22.50;69.20;;;;;;5068620;28;44064;-68
2022/06/13 13:30:04;;;;;;;6.10;5.00;;;22.40;69.40;;;;;;5068619;28;43999;-69
2022/06/13 13:32:38;;;;;;;8.17;4.90;;;22.40;69.50;;;;;;5068383;28;44001;-68